Time;durP1;ratioP1;P1;durP2;ratioP2;P2;SDS_P1;SDS_P2;PMS_P1;PMS_P2;Temp;Humidity;BMP_temperature;BMP_pressure;BME280_temperature;BME280_humidity;BME280_pressure;Samples;Min_cycle;Max_cycle;Signal;HPM_P1;HPM_P2
2022/10/30 00:00:13;;;;;;;11.75;5.60;;;;;;;17.28;100.00;101233.38;20800481;28;20394;-86
2022/10/30 00:10:16;;;;;;;10.38;5.45;;;;;;;17.76;100.00;101319.19;20810041;28;20071;-86
2022/10/30 00:20:17;;;;;;;12.77;5.82;;;;;;;17.75;100.00;101322.88;20808038;28;20103;-86
2022/10/30 00:30:18;;;;;;;11.00;5.88;;;;;;;17.74;100.00;101315.75;20808919;28;20131;-86
2022/10/30 00:40:21;;;;;;;7.57;5.65;;;;;;;17.73;100.00;101305.97;20806128;28;20053;-86
2022/10/30 00:50:26;;;;;;;11.32;6.28;;;;;;;17.73;100.00;101302.41;20806406;28;20064;-86
2022/10/30 01:00:34;;;;;;;12.38;5.97;;;;;;;17.71;100.00;101305.25;20789345;28;20125;-87
2022/10/30 01:10:36;;;;;;;11.68;6.22;;;;;;;17.66;100.00;101302.91;20785781;28;20522;-86
2022/10/30 01:20:49;;;;;;;8.43;5.20;;;;;;;17.53;100.00;101286.06;20787656;28;20056;-85
2022/10/30 01:31:09;;;;;;;8.98;5.55;;;;;;;17.70;100.00;101311.63;20804113;28;20152;-86
2022/10/30 01:41:11;;;;;;;9.05;5.53;;;;;;;17.68;100.00;101310.88;20817763;28;20449;-86
2022/10/30 01:51:30;;;;;;;11.90;5.85;;;;;;;17.67;100.00;101310.00;20802121;28;20041;-86
2022/10/30 02:01:34;;;;;;;11.32;5.68;;;;;;;17.66;99.93;101312.81;20801768;28;20045;-86
2022/10/30 02:11:37;;;;;;;11.00;5.38;;;;;;;17.43;99.63;101291.31;20799665;28;20053;-86
2022/10/30 02:21:39;;;;;;;10.55;5.57;;;;;;;16.94;99.31;101208.16;20800701;28;20494;-86
2022/10/30 02:31:40;;;;;;;7.63;5.20;;;;;;;17.17;99.11;101242.28;20797978;28;20382;-86
2022/10/30 02:41:42;;;;;;;8.00;4.93;;;;;;;17.62;98.92;101332.88;20797251;28;20095;-86
2022/10/30 02:51:45;;;;;;;11.07;5.28;;;;;;;17.13;98.53;101252.44;20796705;28;20050;-86
2022/10/30 03:01:47;;;;;;;12.20;6.13;;;;;;;17.60;98.21;101335.72;20795862;28;20132;-86
2022/10/30 03:11:48;;;;;;;9.73;5.70;;;;;;;17.60;98.13;101342.94;20779339;28;20061;-86
2022/10/30 03:21:50;;;;;;;10.30;5.65;;;;;;;17.59;97.66;101352.00;20794393;28;20049;-86
2022/10/30 03:31:51;;;;;;;11.18;5.68;;;;;;;17.58;97.43;101342.19;20793752;28;20053;-86
2022/10/30 03:41:54;;;;;;;10.02;6.13;;;;;;;17.19;97.04;101294.16;20793759;28;20151;-86
2022/10/30 03:51:56;;;;;;;9.77;5.60;;;;;;;17.56;96.77;101363.00;20776406;28;20049;-86
2022/10/30 04:02:00;;;;;;;12.82;5.53;;;;;;;17.37;96.53;101333.03;20776768;28;20144;-86
2022/10/30 04:12:03;;;;;;;9.90;5.35;;;;;;;17.54;96.38;101372.06;20792390;28;20069;-86
2022/10/30 04:22:05;;;;;;;12.18;6.07;;;;;;;17.54;96.08;101369.38;20776106;28;20594;-86
2022/10/30 04:32:09;;;;;;;8.10;5.13;;;;;;;16.85;95.73;101259.13;20775340;28;20046;-85
2022/10/30 04:42:11;;;;;;;9.50;5.45;;;;;;;17.20;95.32;101312.84;20774094;28;20053;-86
2022/10/30 04:52:15;;;;;;;11.47;5.67;;;;;;;17.12;95.29;101317.13;20773076;28;20132;-86
2022/10/30 05:02:20;;;;;;;13.82;5.13;;;;;;;17.50;95.08;101356.28;20821169;28;20080;-86
2022/10/30 05:12:21;;;;;;;13.50;6.07;;;;;;;17.35;94.90;101356.50;20806191;28;20128;-86
2022/10/30 05:22:27;;;;;;;8.88;4.97;;;;;;;16.74;94.28;101246.50;20787753;28;20116;-86
2022/10/30 05:32:28;;;;;;;9.43;5.35;;;;;;;17.48;93.87;101364.47;20786171;28;20042;-86
2022/10/30 05:42:32;;;;;;;9.45;5.15;;;;;;;17.45;93.34;101343.19;20802476;28;20045;-86
2022/10/30 05:52:37;;;;;;;7.93;4.70;;;;;;;16.73;93.13;101239.41;20801426;28;20124;-86
2022/10/30 06:02:39;;;;;;;10.55;5.45;;;;;;;16.85;93.07;101275.25;20782380;28;20049;-86
2022/10/30 06:12:40;;;;;;;8.55;5.38;;;;;;;17.15;92.71;101312.34;20797962;28;20061;-86
2022/10/30 06:22:59;;;;;;;8.65;5.28;;;;;;;17.43;92.80;101355.03;20792602;28;20050;-86
2022/10/30 06:33:09;;;;;;;11.05;6.03;;;;;;;17.31;92.76;101357.75;20780798;28;20093;-86
2022/10/30 06:43:15;;;;;;;8.00;4.93;;;;;;;17.27;92.78;101337.44;20782357;28;20045;-86
2022/10/30 06:53:23;;;;;;;10.07;5.85;;;;;;;17.40;92.78;101378.53;20778228;28;20053;-86
2022/10/30 07:03:25;;;;;;;9.18;4.60;;;;;;;17.18;94.03;101347.09;20772386;28;20056;-83
2022/10/30 07:13:27;;;;;;;6.88;4.43;;;;;;;17.51;100.00;101377.69;20767765;28;20042;-84
2022/10/30 07:23:35;;;;;;;7.43;5.05;;;;;;;17.31;100.00;101316.53;20726391;28;20075;-84
2022/10/30 07:33:49;;;;;;;7.70;4.47;;;;;;;17.59;100.00;101357.38;20780876;28;20045;-83
2022/10/30 07:44:04;;;;;;;8.53;4.03;;;;;;;17.85;100.00;101386.75;20759471;28;20168;-82
2022/10/30 07:54:18;;;;;;;5.87;3.60;;;;;;;17.94;100.00;101375.22;20751852;28;20041;-83
2022/10/30 08:04:20;;;;;;;6.55;4.00;;;;;;;17.67;100.00;101328.84;20724686;28;20605;-83
2022/10/30 08:14:22;;;;;;;6.95;3.65;;;;;;;18.07;100.00;101397.50;20744638;28;20092;-83
2022/10/30 08:24:25;;;;;;;6.53;4.30;;;;;;;17.72;100.00;101333.88;20773858;28;20047;-83
2022/10/30 08:34:31;;;;;;;5.28;3.85;;;;;;;18.07;100.00;101410.13;20777427;28;20525;-85
2022/10/30 08:44:37;;;;;;;6.20;3.47;;;;;;;17.86;100.00;101362.34;20783233;28;20041;-85
2022/10/30 08:54:57;;;;;;;5.18;3.63;;;;;;;17.18;100.00;101252.91;20764879;28;20132;-86
2022/10/30 09:05:00;;;;;;;3.80;3.25;;;;;;;17.61;100.00;101333.88;20778588;28;20405;-85
2022/10/30 09:15:19;;;;;;;4.57;2.90;;;;;;;17.76;100.00;101359.59;20792870;28;20415;-85
2022/10/30 09:25:28;;;;;;;4.28;2.88;;;;;;;17.72;100.00;101355.44;20797192;28;20038;-85
2022/10/30 09:35:52;;;;;;;5.38;3.05;;;;;;;17.53;100.00;101323.75;20767634;28;20522;-83
2022/10/30 09:46:24;;;;;;;3.90;3.00;;;;;;;17.93;100.00;101390.53;20779653;28;20057;-84
2022/10/30 09:56:46;;;;;;;4.13;3.20;;;;;;;17.93;100.00;101406.69;20781080;28;20409;-85
2022/10/30 10:06:54;;;;;;;4.57;3.17;;;;;;;17.28;100.00;101306.03;20798409;28;20034;-84
2022/10/30 10:17:13;;;;;;;5.43;2.90;;;;;;;17.89;100.00;101405.22;20783013;28;20498;-85
2022/10/30 10:27:23;;;;;;;4.90;3.10;;;;;;;17.88;100.00;101408.03;20784563;28;20056;-85
2022/10/30 10:37:33;;;;;;;4.38;2.65;;;;;;;17.88;100.00;101402.66;20793450;28;20046;-85
2022/10/30 10:47:55;;;;;;;3.42;2.83;;;;;;;17.86;100.00;101399.22;20764490;28;20567;-85
2022/10/30 10:58:24;;;;;;;4.63;2.65;;;;;;;17.51;100.00;101331.94;20769862;28;20042;-84
2022/10/30 11:08:28;;;;;;;5.70;2.83;;;;;;;17.86;100.00;101383.06;20773101;28;20510;-85
2022/10/30 11:18:29;;;;;;;4.20;2.50;;;;;;;17.56;100.00;101338.78;20771876;28;20050;-85
2022/10/30 11:28:39;;;;;;;3.35;2.80;;;;;;;17.86;100.00;101400.06;20775791;28;20049;-85
2022/10/30 11:38:41;;;;;;;4.65;2.72;;;;;;;17.32;100.00;101307.47;20770283;28;20045;-85
2022/10/30 11:48:44;;;;;;;2.85;2.40;;;;;;;17.75;100.00;101376.72;20787407;28;20053;-85
2022/10/30 11:58:49;;;;;;;2.90;2.40;;;;;;;17.21;100.00;101265.28;20788170;28;20059;-85
2022/10/30 12:09:18;;;;;;;4.37;2.73;;;;;;;17.85;100.00;101366.03;20800419;28;20050;-85
2022/10/30 12:19:21;;;;;;;3.83;2.65;;;;;;;17.66;100.00;101327.16;20815288;28;20061;-85
2022/10/30 12:29:28;;;;;;;2.53;2.30;;;;;;;17.62;100.00;101314.03;20803925;28;20101;-85
2022/10/30 12:39:54;;;;;;;3.83;2.45;;;;;;;17.85;100.00;101349.88;20807438;28;20057;-85
2022/10/30 12:50:16;;;;;;;3.70;2.38;;;;;;;17.08;100.00;101241.19;20828467;28;20053;-85
2022/10/30 13:00:18;;;;;;;2.45;2.10;;;;;;;17.86;100.00;101339.97;20811775;28;20045;-85
2022/10/30 13:10:34;;;;;;;3.10;2.25;;;;;;;17.85;100.00;101317.56;20808544;28;20125;-85
2022/10/30 13:20:35;;;;;;;3.25;2.40;;;;;;;17.51;100.00;101270.00;20824207;28;20053;-85
2022/10/30 13:30:40;;;;;;;2.75;2.17;;;;;;;17.37;100.00;101246.06;20832244;28;20057;-85
2022/10/30 13:40:43;;;;;;;2.77;2.23;;;;;;;17.24;100.00;101222.84;20796662;28;20088;-85
2022/10/30 13:50:54;;;;;;;2.95;2.00;;;;;;;17.86;100.00;101319.25;20830716;28;20053;-84
2022/10/30 14:00:58;;;;;;;3.70;2.22;;;;;;;17.86;100.00;101323.81;20843286;28;20056;-85
2022/10/30 14:11:00;;;;;;;3.70;2.33;;;;;;;16.72;100.00;101138.22;20850430;28;20632;-85
2022/10/30 14:21:30;;;;;;;2.72;2.22;;;;;;;17.86;100.00;101307.66;20831509;28;20051;-85
2022/10/30 14:31:36;;;;;;;3.88;2.22;;;;;;;17.86;100.00;101313.03;20820648;28;20110;-85
2022/10/30 14:41:52;;;;;;;2.13;1.85;;;;;;;17.75;100.00;101290.53;20795404;28;20061;-85
2022/10/30 14:52:28;;;;;;;3.17;2.13;;;;;;;17.85;100.00;101287.09;20831230;28;20763;-85
2022/10/30 15:03:17;;;;;;;2.60;1.83;;;;;;;17.86;100.00;101292.34;20747093;28;20065;-84
2022/10/30 15:13:20;;;;;;;2.00;1.80;;;;;;;17.34;100.00;101222.09;20783139;28;20082;-85
2022/10/30 15:23:28;;;;;;;3.05;1.80;;;;;;;17.86;100.00;101302.25;20839403;28;20528;-84
2022/10/30 15:33:31;;;;;;;2.33;2.13;;;;;;;17.59;100.00;101282.88;20816360;28;20062;-85
2022/10/30 15:43:34;;;;;;;1.80;1.70;;;;;;;17.83;100.00;101339.25;20702245;28;20057;-84
2022/10/30 15:53:37;;;;;;;2.50;1.77;;;;;;;17.83;100.00;101328.47;20700852;28;20046;-85
2022/10/30 16:03:38;;;;;;;1.70;1.60;;;;;;;17.82;100.00;101334.84;20707135;28;20050;-85
2022/10/30 16:13:46;;;;;;;2.10;1.90;;;;;;;17.37;100.00;101264.91;20688013;28;20518;-84
2022/10/30 16:23:53;;;;;;;2.65;2.17;;;;;;;17.65;100.00;101285.06;20698713;28;20046;-85
2022/10/30 16:33:56;;;;;;;1.88;1.67;;;;;;;17.81;100.00;101306.19;20708012;28;20050;-85
2022/10/30 16:44:23;;;;;;;1.95;1.70;;;;;;;17.81;100.00;101322.34;20771790;28;20049;-84
2022/10/30 16:54:30;;;;;;;2.03;1.60;;;;;;;17.81;100.00;101343.03;20823160;28;20053;-85
2022/10/30 17:04:33;;;;;;;1.77;1.67;;;;;;;17.81;100.00;101343.91;20786526;28;20077;-84
2022/10/30 17:14:50;;;;;;;1.83;1.70;;;;;;;17.81;100.00;101370.84;20806850;28;20045;-85
2022/10/30 17:24:52;;;;;;;2.05;1.73;;;;;;;17.79;100.00;101380.88;20791351;28;20041;-85
2022/10/30 17:34:57;;;;;;;2.10;1.80;;;;;;;17.74;100.00;101410.00;20800717;28;20522;-85
2022/10/30 17:45:01;;;;;;;1.40;1.30;;;;;;;17.27;100.00;101333.91;20800419;28;20057;-85
2022/10/30 17:55:28;;;;;;;1.88;1.77;;;;;;;17.80;100.00;101433.75;20813851;28;20053;-85
2022/10/30 18:05:31;;;;;;;2.17;1.73;;;;;;;17.80;100.00;101449.03;20779916;28;20069;-85
2022/10/30 18:15:34;;;;;;;2.28;2.08;;;;;;;17.80;100.00;101447.22;20781104;28;20561;-84
2022/10/30 18:25:37;;;;;;;2.38;1.90;;;;;;;17.34;100.00;101367.41;20770469;28;20610;-85
2022/10/30 18:35:38;;;;;;;2.10;1.60;;;;;;;17.80;100.00;101457.13;20779087;28;20041;-84
2022/10/30 18:45:40;;;;;;;1.92;1.70;;;;;;;17.79;100.00;101450.91;20814128;28;20053;-85
2022/10/30 18:55:43;;;;;;;1.73;1.60;;;;;;;17.79;100.00;101447.34;20769370;28;20057;-85
2022/10/30 19:05:47;;;;;;;1.70;1.50;;;;;;;17.11;100.00;101318.94;20777753;28;20050;-85
2022/10/30 19:15:51;;;;;;;1.77;1.67;;;;;;;17.79;100.00;101442.81;20794582;28;20477;-84
2022/10/30 19:26:00;;;;;;;1.40;1.30;;;;;;;17.02;100.00;101351.97;20750527;28;20053;-84
2022/10/30 19:36:06;;;;;;;2.30;1.85;;;;;;;17.65;100.00;101473.53;20781948;28;20052;-86
2022/10/30 19:46:07;;;;;;;1.58;1.45;;;;;;;17.78;100.00;101503.03;20778445;28;20400;-84
2022/10/30 19:56:11;;;;;;;2.05;1.60;;;;;;;17.79;100.00;101523.63;20771251;28;20546;-84
2022/10/30 20:06:13;;;;;;;2.13;1.50;;;;;;;17.29;100.00;101461.13;20755571;28;20192;-85
2022/10/30 20:16:15;;;;;;;2.30;1.40;;;;;;;17.79;100.00;101555.94;20772816;28;20136;-85
2022/10/30 20:26:49;;;;;;;1.80;1.52;;;;;;;17.79;100.00;101555.06;20776748;28;20045;-83
2022/10/30 20:36:50;;;;;;;1.60;1.35;;;;;;;17.79;100.00;101555.06;20781564;28;20048;-84
2022/10/30 20:46:52;;;;;;;1.85;1.58;;;;;;;17.71;100.00;101573.66;20788134;28;20490;-84
2022/10/30 20:56:53;;;;;;;2.00;1.52;;;;;;;17.46;100.00;101536.03;20797681;28;20045;-84
2022/10/30 21:06:55;;;;;;;2.13;1.50;;;;;;;17.73;100.00;101594.13;20791121;28;20072;-83
2022/10/30 21:16:56;;;;;;;1.85;1.55;;;;;;;17.79;100.00;101619.69;20776816;28;20055;-84
2022/10/30 21:26:58;;;;;;;1.55;1.45;;;;;;;17.70;100.00;101640.13;20798985;28;20049;-84
2022/10/30 21:36:59;;;;;;;2.17;1.63;;;;;;;17.79;100.00;101649.31;20758022;28;20050;-83
2022/10/30 21:47:00;;;;;;;1.70;1.60;;;;;;;17.79;100.00;101627.78;20781406;28;20398;-84
2022/10/30 21:57:02;;;;;;;2.97;1.60;;;;;;;17.79;100.00;101625.97;20779064;28;20132;-84
2022/10/30 22:07:04;;;;;;;1.92;1.60;;;;;;;17.49;100.00;101564.56;20763198;28;20049;-84
2022/10/30 22:17:06;;;;;;;1.70;1.60;;;;;;;17.78;100.00;101624.25;20707859;28;20057;-84
2022/10/30 22:27:07;;;;;;;1.60;1.48;;;;;;;17.77;100.00;101622.53;20769831;28;20128;-84
2022/10/30 22:37:09;;;;;;;1.73;1.55;;;;;;;17.28;100.00;101550.91;20785906;28;20049;-84
2022/10/30 22:47:10;;;;;;;2.15;1.88;;;;;;;16.87;100.00;101497.38;20792893;28;20045;-84
2022/10/30 22:57:11;;;;;;;1.58;1.48;;;;;;;17.78;100.00;101640.41;20796979;28;20106;-84
2022/10/30 23:07:15;;;;;;;1.65;1.50;;;;;;;16.67;100.00;101499.69;20831378;28;20405;-84
2022/10/30 23:17:17;;;;;;;1.58;1.42;;;;;;;17.36;100.00;101580.78;20710133;28;20112;-83
2022/10/30 23:27:18;;;;;;;1.63;1.48;;;;;;;17.29;100.00;101622.59;20786385;28;20041;-84
2022/10/30 23:37:20;;;;;;;2.30;1.38;;;;;;;17.78;100.00;101688.00;20793284;28;20058;-84
2022/10/30 23:47:22;;;;;;;2.10;1.50;;;;;;;17.77;100.00;101686.28;20786664;28;20103;-84
2022/10/30 23:57:23;;;;;;;1.70;1.60;;;;;;;17.61;100.00;101670.44;20794401;28;20065;-84
